sensor_id;sensor_type;location;lat;lon;timestamp;P1;durP1;ratioP1;P2;durP2;ratioP2
27566;SDS011;15006;48.584;9.186;2023-05-16T00:00:55;14.80;;;13.55;;
27566;SDS011;15006;48.584;9.186;2023-05-16T00:03:22;15.10;;;13.75;;
27566;SDS011;15006;48.584;9.186;2023-05-16T00:05:48;14.43;;;13.02;;
27566;SDS011;15006;48.584;9.186;2023-05-16T00:08:15;14.27;;;12.88;;
27566;SDS011;15006;48.584;9.186;2023-05-16T00:10:41;13.13;;;12.13;;
27566;SDS011;15006;48.584;9.186;2023-05-16T00:13:07;12.75;;;11.75;;
27566;SDS011;15006;48.584;9.186;2023-05-16T00:15:34;11.82;;;10.82;;
27566;SDS011;15006;48.584;9.186;2023-05-16T00:18:02;12.90;;;11.82;;
27566;SDS011;15006;48.584;9.186;2023-05-16T00:20:29;11.70;;;10.80;;
27566;SDS011;15006;48.584;9.186;2023-05-16T00:22:56;12.07;;;11.05;;
27566;SDS011;15006;48.584;9.186;2023-05-16T00:25:25;10.85;;;10.05;;
27566;SDS011;15006;48.584;9.186;2023-05-16T00:27:52;12.35;;;10.75;;
27566;SDS011;15006;48.584;9.186;2023-05-16T00:30:19;11.98;;;10.98;;
27566;SDS011;15006;48.584;9.186;2023-05-16T00:32:45;12.50;;;11.25;;
27566;SDS011;15006;48.584;9.186;2023-05-16T00:35:11;12.07;;;11.13;;
27566;SDS011;15006;48.584;9.186;2023-05-16T00:37:37;11.73;;;10.85;;
27566;SDS011;15006;48.584;9.186;2023-05-16T00:40:04;11.82;;;10.73;;
27566;SDS011;15006;48.584;9.186;2023-05-16T00:42:31;11.02;;;10.18;;
27566;SDS011;15006;48.584;9.186;2023-05-16T00:44:58;10.38;;;9.45;;
27566;SDS011;15006;48.584;9.186;2023-05-16T00:47:24;10.60;;;9.85;;
27566;SDS011;15006;48.584;9.186;2023-05-16T00:49:50;10.23;;;9.52;;
27566;SDS011;15006;48.584;9.186;2023-05-16T00:52:16;10.00;;;9.10;;
27566;SDS011;15006;48.584;9.186;2023-05-16T00:54:42;9.77;;;9.07;;
27566;SDS011;15006;48.584;9.186;2023-05-16T00:57:08;10.13;;;9.43;;
27566;SDS011;15006;48.584;9.186;2023-05-16T00:59:34;10.48;;;9.57;;
27566;SDS011;15006;48.584;9.186;2023-05-16T01:02:00;10.30;;;9.57;;
27566;SDS011;15006;48.584;9.186;2023-05-16T01:04:27;9.25;;;8.65;;
27566;SDS011;15006;48.584;9.186;2023-05-16T01:06:54;10.15;;;9.48;;
27566;SDS011;15006;48.584;9.186;2023-05-16T01:09:21;10.20;;;9.40;;
27566;SDS011;15006;48.584;9.186;2023-05-16T01:17:58;11.90;;;10.85;;
27566;SDS011;15006;48.584;9.186;2023-05-16T01:23:16;11.40;;;10.27;;
27566;SDS011;15006;48.584;9.186;2023-05-16T01:26:16;11.73;;;10.73;;
27566;SDS011;15006;48.584;9.186;2023-05-16T01:28:48;13.75;;;12.45;;
27566;SDS011;15006;48.584;9.186;2023-05-16T01:31:15;14.27;;;12.88;;
27566;SDS011;15006;48.584;9.186;2023-05-16T01:33:42;14.52;;;13.05;;
27566;SDS011;15006;48.584;9.186;2023-05-16T01:36:17;17.45;;;14.38;;
27566;SDS011;15006;48.584;9.186;2023-05-16T01:39:40;16.42;;;13.15;;
27566;SDS011;15006;48.584;9.186;2023-05-16T01:42:17;26.25;;;13.73;;
27566;SDS011;15006;48.584;9.186;2023-05-16T01:44:49;13.18;;;12.07;;
27566;SDS011;15006;48.584;9.186;2023-05-16T01:47:20;14.48;;;12.98;;
27566;SDS011;15006;48.584;9.186;2023-05-16T01:50:35;14.57;;;12.27;;
27566;SDS011;15006;48.584;9.186;2023-05-16T01:55:15;12.27;;;11.27;;
27566;SDS011;15006;48.584;9.186;2023-05-16T01:57:51;12.38;;;11.38;;
27566;SDS011;15006;48.584;9.186;2023-05-16T02:00:19;12.63;;;11.52;;
27566;SDS011;15006;48.584;9.186;2023-05-16T02:02:45;12.70;;;11.80;;
27566;SDS011;15006;48.584;9.186;2023-05-16T02:05:11;12.73;;;11.70;;
27566;SDS011;15006;48.584;9.186;2023-05-16T02:07:37;13.10;;;12.00;;
27566;SDS011;15006;48.584;9.186;2023-05-16T02:10:03;13.48;;;12.27;;
27566;SDS011;15006;48.584;9.186;2023-05-16T02:12:31;13.40;;;12.30;;
27566;SDS011;15006;48.584;9.186;2023-05-16T02:14:57;13.43;;;12.13;;
27566;SDS011;15006;48.584;9.186;2023-05-16T02:17:23;12.23;;;11.32;;
27566;SDS011;15006;48.584;9.186;2023-05-16T02:19:49;12.65;;;11.60;;
27566;SDS011;15006;48.584;9.186;2023-05-16T02:22:15;12.85;;;11.75;;
27566;SDS011;15006;48.584;9.186;2023-05-16T02:24:41;13.35;;;12.35;;
27566;SDS011;15006;48.584;9.186;2023-05-16T02:27:07;12.75;;;11.57;;
27566;SDS011;15006;48.584;9.186;2023-05-16T02:29:34;13.88;;;12.55;;
27566;SDS011;15006;48.584;9.186;2023-05-16T02:32:00;13.80;;;12.52;;
27566;SDS011;15006;48.584;9.186;2023-05-16T02:34:26;13.60;;;12.50;;
27566;SDS011;15006;48.584;9.186;2023-05-16T02:36:52;13.38;;;12.07;;
27566;SDS011;15006;48.584;9.186;2023-05-16T02:39:18;14.18;;;12.88;;
27566;SDS011;15006;48.584;9.186;2023-05-16T02:41:44;15.15;;;13.68;;
27566;SDS011;15006;48.584;9.186;2023-05-16T02:44:10;14.25;;;12.90;;
27566;SDS011;15006;48.584;9.186;2023-05-16T02:46:36;14.15;;;12.85;;
27566;SDS011;15006;48.584;9.186;2023-05-16T02:49:02;15.60;;;14.20;;
27566;SDS011;15006;48.584;9.186;2023-05-16T02:51:29;16.83;;;15.15;;
27566;SDS011;15006;48.584;9.186;2023-05-16T02:53:55;16.08;;;14.48;;
27566;SDS011;15006;48.584;9.186;2023-05-16T02:56:27;18.02;;;15.95;;
27566;SDS011;15006;48.584;9.186;2023-05-16T02:58:53;17.77;;;15.35;;
27566;SDS011;15006;48.584;9.186;2023-05-16T03:01:20;17.35;;;15.55;;
27566;SDS011;15006;48.584;9.186;2023-05-16T03:03:46;18.85;;;16.83;;
27566;SDS011;15006;48.584;9.186;2023-05-16T03:06:12;20.88;;;16.73;;
27566;SDS011;15006;48.584;9.186;2023-05-16T03:08:38;19.15;;;17.02;;
27566;SDS011;15006;48.584;9.186;2023-05-16T03:11:04;18.23;;;16.38;;
27566;SDS011;15006;48.584;9.186;2023-05-16T03:13:30;25.23;;;19.10;;
27566;SDS011;15006;48.584;9.186;2023-05-16T03:15:57;24.45;;;18.50;;
27566;SDS011;15006;48.584;9.186;2023-05-16T03:18:23;20.50;;;18.30;;
27566;SDS011;15006;48.584;9.186;2023-05-16T03:20:49;19.10;;;15.32;;
27566;SDS011;15006;48.584;9.186;2023-05-16T03:23:18;16.70;;;14.68;;
27566;SDS011;15006;48.584;9.186;2023-05-16T03:25:46;15.60;;;14.00;;
27566;SDS011;15006;48.584;9.186;2023-05-16T03:28:13;13.30;;;12.20;;
27566;SDS011;15006;48.584;9.186;2023-05-16T03:30:41;13.75;;;12.48;;
27566;SDS011;15006;48.584;9.186;2023-05-16T03:33:07;13.50;;;12.32;;
27566;SDS011;15006;48.584;9.186;2023-05-16T03:35:34;15.43;;;13.93;;
27566;SDS011;15006;48.584;9.186;2023-05-16T03:38:01;16.35;;;14.75;;
27566;SDS011;15006;48.584;9.186;2023-05-16T03:40:28;16.10;;;14.50;;
27566;SDS011;15006;48.584;9.186;2023-05-16T03:42:54;15.48;;;13.80;;
27566;SDS011;15006;48.584;9.186;2023-05-16T03:45:20;15.52;;;13.93;;
27566;SDS011;15006;48.584;9.186;2023-05-16T03:47:49;15.55;;;13.98;;
27566;SDS011;15006;48.584;9.186;2023-05-16T03:50:15;17.50;;;14.52;;
27566;SDS011;15006;48.584;9.186;2023-05-16T03:52:42;15.68;;;14.10;;
27566;SDS011;15006;48.584;9.186;2023-05-16T03:55:08;15.90;;;14.23;;
27566;SDS011;15006;48.584;9.186;2023-05-16T03:57:35;16.98;;;13.70;;
27566;SDS011;15006;48.584;9.186;2023-05-16T04:00:04;15.95;;;14.35;;
27566;SDS011;15006;48.584;9.186;2023-05-16T04:02:32;16.90;;;13.30;;
27566;SDS011;15006;48.584;9.186;2023-05-16T04:04:59;13.88;;;12.63;;
27566;SDS011;15006;48.584;9.186;2023-05-16T04:07:25;17.38;;;14.52;;
27566;SDS011;15006;48.584;9.186;2023-05-16T04:09:52;17.45;;;15.65;;
27566;SDS011;15006;48.584;9.186;2023-05-16T04:12:20;26.25;;;18.88;;
27566;SDS011;15006;48.584;9.186;2023-05-16T04:14:47;26.88;;;20.83;;
27566;SDS011;15006;48.584;9.186;2023-05-16T04:17:13;25.73;;;17.50;;
27566;SDS011;15006;48.584;9.186;2023-05-16T04:19:39;17.38;;;15.60;;
27566;SDS011;15006;48.584;9.186;2023-05-16T04:22:05;16.50;;;14.85;;
27566;SDS011;15006;48.584;9.186;2023-05-16T04:24:32;21.02;;;16.92;;
27566;SDS011;15006;48.584;9.186;2023-05-16T04:26:58;29.15;;;19.85;;
27566;SDS011;15006;48.584;9.186;2023-05-16T04:29:25;32.00;;;23.08;;
27566;SDS011;15006;48.584;9.186;2023-05-16T04:31:51;35.45;;;26.02;;
27566;SDS011;15006;48.584;9.186;2023-05-16T04:34:17;43.78;;;29.05;;
27566;SDS011;15006;48.584;9.186;2023-05-16T04:36:43;39.20;;;27.42;;
27566;SDS011;15006;48.584;9.186;2023-05-16T04:39:09;50.25;;;31.88;;
27566;SDS011;15006;48.584;9.186;2023-05-16T04:41:36;47.13;;;30.52;;
27566;SDS011;15006;48.584;9.186;2023-05-16T04:44:02;45.72;;;31.23;;
27566;SDS011;15006;48.584;9.186;2023-05-16T04:46:29;54.03;;;34.28;;
27566;SDS011;15006;48.584;9.186;2023-05-16T04:48:55;57.35;;;34.88;;
27566;SDS011;15006;48.584;9.186;2023-05-16T04:51:21;60.53;;;37.20;;
27566;SDS011;15006;48.584;9.186;2023-05-16T04:53:48;63.95;;;38.13;;
27566;SDS011;15006;48.584;9.186;2023-05-16T04:56:14;60.88;;;38.20;;
27566;SDS011;15006;48.584;9.186;2023-05-16T04:58:39;59.03;;;36.85;;
27566;SDS011;15006;48.584;9.186;2023-05-16T05:01:05;66.72;;;39.10;;
27566;SDS011;15006;48.584;9.186;2023-05-16T05:03:31;58.72;;;37.85;;
27566;SDS011;15006;48.584;9.186;2023-05-16T05:05:58;59.25;;;36.35;;
27566;SDS011;15006;48.584;9.186;2023-05-16T05:08:24;55.15;;;36.30;;
27566;SDS011;15006;48.584;9.186;2023-05-16T05:10:50;60.65;;;38.30;;
27566;SDS011;15006;48.584;9.186;2023-05-16T05:13:16;59.25;;;35.85;;
27566;SDS011;15006;48.584;9.186;2023-05-16T05:15:42;59.38;;;37.33;;
27566;SDS011;15006;48.584;9.186;2023-05-16T05:18:08;67.05;;;39.42;;
27566;SDS011;15006;48.584;9.186;2023-05-16T05:20:34;64.88;;;38.38;;
27566;SDS011;15006;48.584;9.186;2023-05-16T05:23:00;67.45;;;40.38;;
27566;SDS011;15006;48.584;9.186;2023-05-16T05:25:26;63.35;;;38.45;;
27566;SDS011;15006;48.584;9.186;2023-05-16T05:27:53;66.65;;;40.20;;
27566;SDS011;15006;48.584;9.186;2023-05-16T05:30:19;67.90;;;40.72;;
27566;SDS011;15006;48.584;9.186;2023-05-16T05:32:45;69.35;;;41.05;;
27566;SDS011;15006;48.584;9.186;2023-05-16T05:35:11;77.22;;;40.42;;
27566;SDS011;15006;48.584;9.186;2023-05-16T05:37:37;63.10;;;39.00;;
27566;SDS011;15006;48.584;9.186;2023-05-16T05:40:03;63.90;;;38.17;;
27566;SDS011;15006;48.584;9.186;2023-05-16T05:42:30;63.42;;;38.55;;
27566;SDS011;15006;48.584;9.186;2023-05-16T05:44:56;62.60;;;38.17;;
27566;SDS011;15006;48.584;9.186;2023-05-16T05:47:22;64.28;;;38.53;;
27566;SDS011;15006;48.584;9.186;2023-05-16T05:49:48;64.05;;;39.38;;
27566;SDS011;15006;48.584;9.186;2023-05-16T05:52:15;63.72;;;38.55;;
27566;SDS011;15006;48.584;9.186;2023-05-16T05:54:41;59.88;;;38.55;;
27566;SDS011;15006;48.584;9.186;2023-05-16T05:57:07;63.40;;;38.50;;
27566;SDS011;15006;48.584;9.186;2023-05-16T05:59:33;66.72;;;39.22;;
27566;SDS011;15006;48.584;9.186;2023-05-16T06:01:59;63.28;;;39.28;;
27566;SDS011;15006;48.584;9.186;2023-05-16T06:04:25;59.10;;;37.42;;
27566;SDS011;15006;48.584;9.186;2023-05-16T06:06:51;64.80;;;37.83;;
27566;SDS011;15006;48.584;9.186;2023-05-16T06:09:17;65.68;;;39.35;;
27566;SDS011;15006;48.584;9.186;2023-05-16T06:11:45;67.20;;;38.35;;
27566;SDS011;15006;48.584;9.186;2023-05-16T06:14:12;58.63;;;37.30;;
27566;SDS011;15006;48.584;9.186;2023-05-16T06:16:40;64.63;;;39.55;;
27566;SDS011;15006;48.584;9.186;2023-05-16T06:19:06;57.25;;;36.92;;
27566;SDS011;15006;48.584;9.186;2023-05-16T06:21:33;63.88;;;38.20;;
27566;SDS011;15006;48.584;9.186;2023-05-16T06:23:59;55.67;;;36.88;;
27566;SDS011;15006;48.584;9.186;2023-05-16T06:26:25;55.72;;;37.15;;
27566;SDS011;15006;48.584;9.186;2023-05-16T06:28:51;55.08;;;35.70;;
27566;SDS011;15006;48.584;9.186;2023-05-16T06:31:17;58.17;;;37.20;;
27566;SDS011;15006;48.584;9.186;2023-05-16T06:33:43;56.08;;;35.38;;
27566;SDS011;15006;48.584;9.186;2023-05-16T06:36:10;57.88;;;36.95;;
27566;SDS011;15006;48.584;9.186;2023-05-16T06:38:36;53.70;;;36.50;;
27566;SDS011;15006;48.584;9.186;2023-05-16T06:41:02;56.13;;;36.35;;
27566;SDS011;15006;48.584;9.186;2023-05-16T06:43:28;53.35;;;35.25;;
27566;SDS011;15006;48.584;9.186;2023-05-16T06:45:54;56.20;;;35.33;;
27566;SDS011;15006;48.584;9.186;2023-05-16T06:48:20;55.50;;;35.13;;
27566;SDS011;15006;48.584;9.186;2023-05-16T06:50:49;50.78;;;35.63;;
27566;SDS011;15006;48.584;9.186;2023-05-16T06:53:18;55.03;;;34.92;;
27566;SDS011;15006;48.584;9.186;2023-05-16T06:55:45;52.05;;;35.17;;
27566;SDS011;15006;48.584;9.186;2023-05-16T06:58:11;53.38;;;34.45;;
27566;SDS011;15006;48.584;9.186;2023-05-16T07:00:37;50.90;;;33.00;;
27566;SDS011;15006;48.584;9.186;2023-05-16T07:03:03;45.85;;;32.65;;
27566;SDS011;15006;48.584;9.186;2023-05-16T07:05:29;43.55;;;31.33;;
27566;SDS011;15006;48.584;9.186;2023-05-16T07:07:55;45.13;;;32.20;;
27566;SDS011;15006;48.584;9.186;2023-05-16T07:10:22;46.97;;;32.13;;
27566;SDS011;15006;48.584;9.186;2023-05-16T07:12:48;41.40;;;31.27;;
27566;SDS011;15006;48.584;9.186;2023-05-16T07:15:14;43.50;;;29.98;;
27566;SDS011;15006;48.584;9.186;2023-05-16T07:17:40;41.08;;;29.60;;
27566;SDS011;15006;48.584;9.186;2023-05-16T07:20:06;42.67;;;28.73;;
27566;SDS011;15006;48.584;9.186;2023-05-16T07:22:37;37.63;;;28.27;;
27566;SDS011;15006;48.584;9.186;2023-05-16T07:25:04;39.28;;;28.08;;
27566;SDS011;15006;48.584;9.186;2023-05-16T07:27:37;39.08;;;27.80;;
27566;SDS011;15006;48.584;9.186;2023-05-16T07:30:06;39.08;;;28.73;;
27566;SDS011;15006;48.584;9.186;2023-05-16T07:32:35;39.30;;;26.77;;
27566;SDS011;15006;48.584;9.186;2023-05-16T07:35:02;35.83;;;25.80;;
27566;SDS011;15006;48.584;9.186;2023-05-16T07:37:29;36.15;;;26.50;;
27566;SDS011;15006;48.584;9.186;2023-05-16T07:39:55;35.60;;;26.17;;
27566;SDS011;15006;48.584;9.186;2023-05-16T07:42:21;36.65;;;26.25;;
27566;SDS011;15006;48.584;9.186;2023-05-16T07:44:47;34.60;;;26.13;;
27566;SDS011;15006;48.584;9.186;2023-05-16T07:47:13;36.25;;;26.90;;
27566;SDS011;15006;48.584;9.186;2023-05-16T07:49:39;35.28;;;26.50;;
27566;SDS011;15006;48.584;9.186;2023-05-16T07:52:05;39.33;;;26.02;;
27566;SDS011;15006;48.584;9.186;2023-05-16T07:54:33;33.03;;;25.52;;
27566;SDS011;15006;48.584;9.186;2023-05-16T07:57:00;32.55;;;24.88;;
27566;SDS011;15006;48.584;9.186;2023-05-16T07:59:27;31.20;;;24.77;;
27566;SDS011;15006;48.584;9.186;2023-05-16T08:01:53;32.05;;;25.15;;
27566;SDS011;15006;48.584;9.186;2023-05-16T08:04:20;38.65;;;26.90;;
27566;SDS011;15006;48.584;9.186;2023-05-16T08:06:46;36.97;;;25.88;;
27566;SDS011;15006;48.584;9.186;2023-05-16T08:09:12;34.22;;;24.30;;
27566;SDS011;15006;48.584;9.186;2023-05-16T08:11:38;30.50;;;22.90;;
27566;SDS011;15006;48.584;9.186;2023-05-16T08:14:04;32.67;;;22.88;;
27566;SDS011;15006;48.584;9.186;2023-05-16T08:16:30;28.92;;;22.67;;
27566;SDS011;15006;48.584;9.186;2023-05-16T08:18:57;26.17;;;21.75;;
27566;SDS011;15006;48.584;9.186;2023-05-16T08:21:23;26.88;;;21.33;;
27566;SDS011;15006;48.584;9.186;2023-05-16T08:23:49;26.70;;;21.60;;
27566;SDS011;15006;48.584;9.186;2023-05-16T08:26:15;27.10;;;21.05;;
27566;SDS011;15006;48.584;9.186;2023-05-16T08:28:42;25.77;;;20.25;;
27566;SDS011;15006;48.584;9.186;2023-05-16T08:31:08;25.40;;;18.88;;
27566;SDS011;15006;48.584;9.186;2023-05-16T08:33:35;17.80;;;15.68;;
27566;SDS011;15006;48.584;9.186;2023-05-16T08:36:01;15.98;;;13.75;;
27566;SDS011;15006;48.584;9.186;2023-05-16T08:38:27;14.63;;;13.23;;
27566;SDS011;15006;48.584;9.186;2023-05-16T08:40:53;14.75;;;13.35;;
27566;SDS011;15006;48.584;9.186;2023-05-16T08:43:19;13.65;;;12.35;;
27566;SDS011;15006;48.584;9.186;2023-05-16T08:45:45;14.60;;;13.15;;
27566;SDS011;15006;48.584;9.186;2023-05-16T08:48:11;13.75;;;12.65;;
27566;SDS011;15006;48.584;9.186;2023-05-16T08:50:41;13.60;;;12.30;;
27566;SDS011;15006;48.584;9.186;2023-05-16T08:53:08;15.20;;;13.63;;
27566;SDS011;15006;48.584;9.186;2023-05-16T08:55:36;14.07;;;12.68;;
27566;SDS011;15006;48.584;9.186;2023-05-16T08:58:03;14.80;;;13.30;;
27566;SDS011;15006;48.584;9.186;2023-05-16T09:00:29;14.90;;;13.50;;
27566;SDS011;15006;48.584;9.186;2023-05-16T09:02:56;14.55;;;13.05;;
27566;SDS011;15006;48.584;9.186;2023-05-16T09:05:22;15.15;;;12.70;;
27566;SDS011;15006;48.584;9.186;2023-05-16T09:07:48;15.93;;;14.30;;
27566;SDS011;15006;48.584;9.186;2023-05-16T09:10:14;16.98;;;15.18;;
27566;SDS011;15006;48.584;9.186;2023-05-16T09:12:41;16.95;;;15.25;;
27566;SDS011;15006;48.584;9.186;2023-05-16T09:15:08;15.38;;;13.88;;
27566;SDS011;15006;48.584;9.186;2023-05-16T09:17:36;16.77;;;15.10;;
27566;SDS011;15006;48.584;9.186;2023-05-16T09:20:13;17.00;;;15.30;;
27566;SDS011;15006;48.584;9.186;2023-05-16T09:22:58;18.40;;;16.50;;
27566;SDS011;15006;48.584;9.186;2023-05-16T09:25:25;18.55;;;16.13;;
27566;SDS011;15006;48.584;9.186;2023-05-16T09:27:54;19.92;;;17.55;;
27566;SDS011;15006;48.584;9.186;2023-05-16T09:30:26;17.73;;;15.93;;
27566;SDS011;15006;48.584;9.186;2023-05-16T09:32:54;19.13;;;16.23;;
27566;SDS011;15006;48.584;9.186;2023-05-16T09:35:21;17.85;;;15.98;;
27566;SDS011;15006;48.584;9.186;2023-05-16T09:37:48;18.63;;;16.75;;
27566;SDS011;15006;48.584;9.186;2023-05-16T09:40:23;18.20;;;16.40;;
27566;SDS011;15006;48.584;9.186;2023-05-16T09:43:02;18.63;;;16.67;;
27566;SDS011;15006;48.584;9.186;2023-05-16T09:45:30;20.02;;;17.48;;
27566;SDS011;15006;48.584;9.186;2023-05-16T09:48:05;19.05;;;17.10;;
27566;SDS011;15006;48.584;9.186;2023-05-16T09:50:34;19.52;;;17.42;;
27566;SDS011;15006;48.584;9.186;2023-05-16T09:53:02;20.17;;;17.75;;
27566;SDS011;15006;48.584;9.186;2023-05-16T09:55:29;20.90;;;18.27;;
27566;SDS011;15006;48.584;9.186;2023-05-16T09:57:55;23.95;;;18.60;;
27566;SDS011;15006;48.584;9.186;2023-05-16T10:00:22;22.13;;;18.95;;
27566;SDS011;15006;48.584;9.186;2023-05-16T10:02:58;25.45;;;19.33;;
27566;SDS011;15006;48.584;9.186;2023-05-16T10:05:26;21.63;;;18.63;;
27566;SDS011;15006;48.584;9.186;2023-05-16T10:07:56;24.95;;;19.48;;
27566;SDS011;15006;48.584;9.186;2023-05-16T10:10:23;21.55;;;19.02;;
27566;SDS011;15006;48.584;9.186;2023-05-16T10:12:50;22.77;;;19.05;;
27566;SDS011;15006;48.584;9.186;2023-05-16T10:15:17;21.52;;;18.85;;
27566;SDS011;15006;48.584;9.186;2023-05-16T10:17:46;22.95;;;19.10;;
27566;SDS011;15006;48.584;9.186;2023-05-16T10:20:17;22.63;;;19.38;;
27566;SDS011;15006;48.584;9.186;2023-05-16T10:22:45;24.98;;;19.17;;
27566;SDS011;15006;48.584;9.186;2023-05-16T10:27:50;25.85;;;19.80;;
27566;SDS011;15006;48.584;9.186;2023-05-16T10:30:17;25.80;;;20.08;;
27566;SDS011;15006;48.584;9.186;2023-05-16T10:32:44;24.00;;;20.27;;
27566;SDS011;15006;48.584;9.186;2023-05-16T10:35:11;26.83;;;21.27;;
27566;SDS011;15006;48.584;9.186;2023-05-16T10:37:38;24.25;;;20.10;;
27566;SDS011;15006;48.584;9.186;2023-05-16T10:40:05;24.25;;;20.33;;
27566;SDS011;15006;48.584;9.186;2023-05-16T10:42:33;24.58;;;19.55;;
27566;SDS011;15006;48.584;9.186;2023-05-16T10:45:18;25.92;;;21.58;;
27566;SDS011;15006;48.584;9.186;2023-05-16T10:48:01;27.70;;;20.38;;
27566;SDS011;15006;48.584;9.186;2023-05-16T10:50:32;28.48;;;21.17;;
27566;SDS011;15006;48.584;9.186;2023-05-16T11:06:25;26.00;;;20.48;;
27566;SDS011;15006;48.584;9.186;2023-05-16T11:17:13;28.92;;;21.42;;
27566;SDS011;15006;48.584;9.186;2023-05-16T11:22:24;25.67;;;20.05;;
27566;SDS011;15006;48.584;9.186;2023-05-16T11:27:25;28.08;;;21.33;;
27566;SDS011;15006;48.584;9.186;2023-05-16T11:32:42;26.73;;;20.92;;
27566;SDS011;15006;48.584;9.186;2023-05-16T11:35:11;27.33;;;20.48;;
27566;SDS011;15006;48.584;9.186;2023-05-16T11:37:39;27.55;;;20.52;;
27566;SDS011;15006;48.584;9.186;2023-05-16T11:40:07;26.50;;;20.70;;
27566;SDS011;15006;48.584;9.186;2023-05-16T11:42:37;30.05;;;21.67;;
27566;SDS011;15006;48.584;9.186;2023-05-16T11:45:18;30.70;;;21.20;;
27566;SDS011;15006;48.584;9.186;2023-05-16T11:47:47;26.95;;;20.98;;
27566;SDS011;15006;48.584;9.186;2023-05-16T11:50:20;25.27;;;20.08;;
27566;SDS011;15006;48.584;9.186;2023-05-16T11:52:51;27.92;;;20.60;;
27566;SDS011;15006;48.584;9.186;2023-05-16T11:55:22;28.83;;;21.45;;
27566;SDS011;15006;48.584;9.186;2023-05-16T11:57:50;26.13;;;20.92;;
27566;SDS011;15006;48.584;9.186;2023-05-16T12:00:20;25.52;;;19.98;;
27566;SDS011;15006;48.584;9.186;2023-05-16T12:02:51;25.58;;;19.00;;
27566;SDS011;15006;48.584;9.186;2023-05-16T12:05:20;23.05;;;18.38;;
27566;SDS011;15006;48.584;9.186;2023-05-16T12:07:51;21.27;;;17.25;;
27566;SDS011;15006;48.584;9.186;2023-05-16T12:10:19;18.45;;;15.52;;
27566;SDS011;15006;48.584;9.186;2023-05-16T12:12:46;20.70;;;15.63;;
27566;SDS011;15006;48.584;9.186;2023-05-16T12:15:16;22.63;;;16.35;;
27566;SDS011;15006;48.584;9.186;2023-05-16T12:17:43;22.52;;;16.05;;
27566;SDS011;15006;48.584;9.186;2023-05-16T12:20:10;21.83;;;15.93;;
27566;SDS011;15006;48.584;9.186;2023-05-16T12:22:42;25.92;;;15.75;;
27566;SDS011;15006;48.584;9.186;2023-05-16T12:27:54;18.13;;;14.05;;
27566;SDS011;15006;48.584;9.186;2023-05-16T12:30:32;16.17;;;13.40;;
27566;SDS011;15006;48.584;9.186;2023-05-16T12:33:02;19.42;;;13.80;;
27566;SDS011;15006;48.584;9.186;2023-05-16T12:35:37;15.30;;;13.00;;
27566;SDS011;15006;48.584;9.186;2023-05-16T12:38:12;15.88;;;13.02;;
27566;SDS011;15006;48.584;9.186;2023-05-16T12:40:41;16.13;;;13.25;;
27566;SDS011;15006;48.584;9.186;2023-05-16T12:45:52;15.55;;;13.85;;
27566;SDS011;15006;48.584;9.186;2023-05-16T12:48:20;16.52;;;13.30;;
27566;SDS011;15006;48.584;9.186;2023-05-16T12:50:47;17.80;;;14.05;;
27566;SDS011;15006;48.584;9.186;2023-05-16T12:53:14;15.88;;;13.93;;
27566;SDS011;15006;48.584;9.186;2023-05-16T12:55:42;20.35;;;16.27;;
27566;SDS011;15006;48.584;9.186;2023-05-16T12:58:09;18.60;;;14.73;;
27566;SDS011;15006;48.584;9.186;2023-05-16T13:00:36;17.35;;;13.50;;
27566;SDS011;15006;48.584;9.186;2023-05-16T13:03:03;16.90;;;14.02;;
27566;SDS011;15006;48.584;9.186;2023-05-16T13:05:30;17.08;;;12.80;;
27566;SDS011;15006;48.584;9.186;2023-05-16T13:07:56;14.23;;;12.48;;
27566;SDS011;15006;48.584;9.186;2023-05-16T13:10:22;14.70;;;12.27;;
27566;SDS011;15006;48.584;9.186;2023-05-16T13:12:50;13.40;;;11.98;;
27566;SDS011;15006;48.584;9.186;2023-05-16T13:15:15;13.05;;;11.35;;
27566;SDS011;15006;48.584;9.186;2023-05-16T13:17:42;11.65;;;10.50;;
27566;SDS011;15006;48.584;9.186;2023-05-16T13:20:09;11.70;;;10.50;;
27566;SDS011;15006;48.584;9.186;2023-05-16T13:22:38;10.18;;;9.30;;
27566;SDS011;15006;48.584;9.186;2023-05-16T13:25:05;8.90;;;8.07;;
27566;SDS011;15006;48.584;9.186;2023-05-16T13:27:33;9.38;;;8.50;;
27566;SDS011;15006;48.584;9.186;2023-05-16T13:29:59;8.38;;;7.78;;
27566;SDS011;15006;48.584;9.186;2023-05-16T13:32:26;8.98;;;7.97;;
27566;SDS011;15006;48.584;9.186;2023-05-16T13:34:52;8.07;;;7.32;;
27566;SDS011;15006;48.584;9.186;2023-05-16T13:37:18;7.60;;;7.10;;
27566;SDS011;15006;48.584;9.186;2023-05-16T13:39:45;7.38;;;6.88;;
27566;SDS011;15006;48.584;9.186;2023-05-16T13:42:11;8.23;;;7.47;;
27566;SDS011;15006;48.584;9.186;2023-05-16T13:44:37;7.97;;;7.28;;
27566;SDS011;15006;48.584;9.186;2023-05-16T13:47:03;7.78;;;7.18;;
27566;SDS011;15006;48.584;9.186;2023-05-16T13:49:29;6.65;;;6.15;;
27566;SDS011;15006;48.584;9.186;2023-05-16T13:51:55;6.60;;;6.10;;
27566;SDS011;15006;48.584;9.186;2023-05-16T13:54:22;5.75;;;5.43;;
27566;SDS011;15006;48.584;9.186;2023-05-16T13:56:48;6.22;;;5.88;;
27566;SDS011;15006;48.584;9.186;2023-05-16T13:59:14;5.82;;;5.50;;
27566;SDS011;15006;48.584;9.186;2023-05-16T14:01:40;5.68;;;5.32;;
27566;SDS011;15006;48.584;9.186;2023-05-16T14:04:06;6.18;;;5.68;;
27566;SDS011;15006;48.584;9.186;2023-05-16T14:06:32;5.03;;;4.63;;
27566;SDS011;15006;48.584;9.186;2023-05-16T14:08:58;5.32;;;4.93;;
27566;SDS011;15006;48.584;9.186;2023-05-16T14:11:24;5.05;;;4.75;;
27566;SDS011;15006;48.584;9.186;2023-05-16T14:13:54;5.53;;;4.78;;
27566;SDS011;15006;48.584;9.186;2023-05-16T14:16:21;5.28;;;4.97;;
27566;SDS011;15006;48.584;9.186;2023-05-16T14:18:47;4.65;;;4.30;;
27566;SDS011;15006;48.584;9.186;2023-05-16T14:21:13;4.80;;;4.50;;
27566;SDS011;15006;48.584;9.186;2023-05-16T14:23:40;4.88;;;4.57;;
27566;SDS011;15006;48.584;9.186;2023-05-16T14:26:06;5.40;;;4.90;;
27566;SDS011;15006;48.584;9.186;2023-05-16T14:28:32;5.40;;;5.00;;
27566;SDS011;15006;48.584;9.186;2023-05-16T14:30:58;4.97;;;4.57;;
27566;SDS011;15006;48.584;9.186;2023-05-16T14:33:26;5.45;;;4.15;;
27566;SDS011;15006;48.584;9.186;2023-05-16T14:35:52;6.60;;;4.72;;
27566;SDS011;15006;48.584;9.186;2023-05-16T14:38:18;4.85;;;4.40;;
27566;SDS011;15006;48.584;9.186;2023-05-16T14:40:45;4.20;;;3.80;;
27566;SDS011;15006;48.584;9.186;2023-05-16T14:43:11;4.22;;;3.92;;
27566;SDS011;15006;48.584;9.186;2023-05-16T14:45:37;4.00;;;3.80;;
27566;SDS011;15006;48.584;9.186;2023-05-16T14:48:06;3.65;;;3.42;;
27566;SDS011;15006;48.584;9.186;2023-05-16T14:50:32;3.70;;;3.30;;
27566;SDS011;15006;48.584;9.186;2023-05-16T14:52:58;3.75;;;3.45;;
27566;SDS011;15006;48.584;9.186;2023-05-16T14:55:25;5.38;;;3.80;;
27566;SDS011;15006;48.584;9.186;2023-05-16T14:57:51;3.90;;;3.60;;
27566;SDS011;15006;48.584;9.186;2023-05-16T15:00:22;3.97;;;3.67;;
27566;SDS011;15006;48.584;9.186;2023-05-16T15:02:50;3.50;;;3.30;;
27566;SDS011;15006;48.584;9.186;2023-05-16T15:05:16;4.72;;;3.33;;
27566;SDS011;15006;48.584;9.186;2023-05-16T15:07:42;3.58;;;3.40;;
27566;SDS011;15006;48.584;9.186;2023-05-16T15:10:09;4.25;;;3.97;;
27566;SDS011;15006;48.584;9.186;2023-05-16T15:12:35;5.10;;;4.32;;
27566;SDS011;15006;48.584;9.186;2023-05-16T15:15:02;3.67;;;3.47;;
27566;SDS011;15006;48.584;9.186;2023-05-16T15:17:28;3.97;;;3.55;;